Time,TemperatureF,DewpointF,PressureIn,WindDirection,WindDirectionDegrees,WindSpeedMPH,WindSpeedGustMPH,Humidity,HourlyPrecipIn,Conditions,Clouds,dailyrainin,SoftwareType,DateUTC
2013-03-05 00:05:00,37.2,35.6,29.75,SSE,166,2.0,3.0,94,0.00,,---,0.00,VWS V14.00,2013-03-05 00:05:00,
2013-03-05 00:10:00,37.2,35.6,29.75,SSE,166,2.0,2.0,94,0.00,,---,0.00,VWS V14.00,2013-03-05 00:10:00,
2013-03-05 00:15:00,37.3,35.7,29.75,SSE,166,0.0,0.0,94,0.00,,---,0.00,VWS V14.00,2013-03-05 00:15:00,
2013-03-05 00:21:00,37.3,35.7,29.75,SSE,166,3.0,3.0,94,0.00,,---,0.00,VWS V14.00,2013-03-05 00:21:00,
2013-03-05 00:26:00,37.3,35.7,29.75,SSE,166,2.0,2.0,94,0.00,,---,0.00,VWS V14.00,2013-03-05 00:26:00,
2013-03-05 00:31:00,37.4,35.8,29.75,SSE,166,1.0,2.0,94,0.00,,---,0.00,VWS V14.00,2013-03-05 00:31:00,
2013-03-05 00:36:00,37.5,36.2,29.75,SSE,166,1.0,1.0,95,0.00,,---,0.00,VWS V14.00,2013-03-05 00:36:00,
2013-03-05 00:41:00,37.6,36.3,29.75,SSE,166,3.0,3.0,95,0.00,,---,0.00,VWS V14.00,2013-03-05 00:41:00,
2013-03-05 00:46:00,37.6,36.0,29.74,SSE,166,3.0,3.0,94,0.00,,---,0.00,VWS V14.00,2013-03-05 00:46:00,
2013-03-05 00:52:00,37.5,35.9,29.74,SSE,166,4.0,5.0,94,0.00,,---,0.00,VWS V14.00,2013-03-05 00:52:00,
2013-03-05 00:58:00,37.3,35.7,29.74,SSE,166,3.0,4.0,94,0.00,,---,0.00,VWS V14.00,2013-03-05 00:58:00,
2013-03-05 01:03:00,37.1,35.5,29.74,SSE,166,2.0,4.0,94,0.00,,---,0.00,VWS V14.00,2013-03-05 01:03:00,
2013-03-05 01:08:00,37.2,35.9,29.74,SSE,166,3.0,4.0,95,0.00,,---,0.00,VWS V14.00,2013-03-05 01:08:00,
2013-03-05 01:13:00,37.3,36.0,29.73,SSE,166,3.0,4.0,95,0.00,,---,0.00,VWS V14.00,2013-03-05 01:13:00,
2013-03-05 01:18:00,37.3,36.0,29.73,SSE,166,4.0,4.0,95,0.00,,---,0.00,VWS V14.00,2013-03-05 01:18:00,
2013-03-05 01:24:00,37.2,35.9,29.73,SSE,166,3.0,4.0,95,0.00,,---,0.00,VWS V14.00,2013-03-05 01:24:00,
2013-03-05 01:29:00,37.1,35.8,29.73,SSE,166,3.0,3.0,95,0.00,,---,0.00,VWS V14.00,2013-03-05 01:29:00,
2013-03-05 01:34:00,37.0,35.4,29.72,SSE,166,4.0,4.0,94,0.00,,---,0.00,VWS V14.00,2013-03-05 01:34:00,
2013-03-05 01:40:00,37.0,35.7,29.72,SSE,166,4.0,5.0,95,0.00,,---,0.00,VWS V14.00,2013-03-05 01:40:00,
2013-03-05 01:45:00,36.9,35.3,29.72,SSE,165,4.0,5.0,94,0.00,,---,0.00,VWS V14.00,2013-03-05 01:45:00,
2013-03-05 01:51:00,36.7,35.1,29.72,SSE,165,5.0,6.0,94,0.00,,---,0.00,VWS V14.00,2013-03-05 01:51:00,
2013-03-05 01:56:00,36.8,35.2,29.72,SSE,164,4.0,5.0,94,0.00,,---,0.00,VWS V14.00,2013-03-05 01:56:00,
2013-03-05 02:02:00,36.8,35.2,29.72,SSE,165,3.0,4.0,94,0.00,,---,0.00,VWS V14.00,2013-03-05 02:02:00,
2013-03-05 02:07:00,36.8,35.2,29.72,SSE,161,6.0,6.0,94,0.00,,---,0.00,VWS V14.00,2013-03-05 02:07:00,
2013-03-05 02:12:00,36.8,35.2,29.72,SSE,161,3.0,5.0,94,0.00,,---,0.00,VWS V14.00,2013-03-05 02:12:00,
2013-03-05 02:18:00,36.9,35.3,29.72,South,169,3.0,4.0,94,0.00,,---,0.00,VWS V14.00,2013-03-05 02:18:00,
2013-03-05 02:24:00,36.9,35.3,29.71,South,180,3.0,4.0,94,0.00,,---,0.00,VWS V14.00,2013-03-05 02:24:00,
2013-03-05 02:29:00,36.9,35.3,29.71,South,181,2.0,4.0,94,0.00,,---,0.00,VWS V14.00,2013-03-05 02:29:00,
2013-03-05 02:34:00,37.0,35.4,29.72,South,181,3.0,3.0,94,0.00,,---,0.00,VWS V14.00,2013-03-05 02:34:00,
2013-03-05 02:40:00,36.9,35.3,29.71,South,181,0.0,0.0,94,0.00,,---,0.00,VWS V14.00,2013-03-05 02:40:00,
2013-03-05 02:45:00,36.7,35.1,29.71,South,181,0.0,0.0,94,0.00,,---,0.00,VWS V14.00,2013-03-05 02:45:00,
2013-03-05 02:51:00,36.9,35.6,29.71,South,181,3.0,3.0,95,0.00,,---,0.00,VWS V14.00,2013-03-05 02:51:00,
2013-03-05 02:56:00,37.0,35.7,29.71,South,181,3.0,3.0,95,0.00,,---,0.00,VWS V14.00,2013-03-05 02:56:00,
2013-03-05 03:01:00,37.1,35.8,29.71,South,181,1.0,2.0,95,0.00,,---,0.00,VWS V14.00,2013-03-05 03:01:00,
2013-03-05 03:07:00,37.0,35.4,29.71,South,181,0.0,0.0,94,0.00,,---,0.00,VWS V14.00,2013-03-05 03:07:00,
2013-03-05 03:13:00,36.9,35.3,29.71,South,181,0.0,0.0,94,0.00,,---,0.00,VWS V14.00,2013-03-05 03:13:00,
2013-03-05 03:18:00,37.0,35.4,29.71,South,181,0.0,0.0,94,0.00,,---,0.00,VWS V14.00,2013-03-05 03:18:00,
2013-03-05 03:23:00,37.0,35.7,29.71,South,181,0.0,0.0,95,0.00,,---,0.00,VWS V14.00,2013-03-05 03:23:00,
2013-03-05 03:28:00,37.1,35.5,29.71,South,181,0.0,0.0,94,0.00,,---,0.00,VWS V14.00,2013-03-05 03:28:00,
2013-03-05 03:33:00,37.1,35.5,29.71,South,181,2.0,3.0,94,0.00,,---,0.00,VWS V14.00,2013-03-05 03:33:00,
2013-03-05 03:38:00,37.2,35.6,29.71,South,181,0.0,0.0,94,0.00,,---,0.00,VWS V14.00,2013-03-05 03:38:00,
2013-03-05 03:43:00,37.2,35.6,29.70,South,181,0.0,0.0,94,0.00,,---,0.00,VWS V14.00,2013-03-05 03:43:00,
2013-03-05 03:49:00,36.9,35.3,29.70,South,181,0.0,0.0,94,0.00,,---,0.00,VWS V14.00,2013-03-05 03:49:00,
2013-03-05 03:54:00,36.8,35.2,29.70,South,181,0.0,0.0,94,0.00,,---,0.00,VWS V14.00,2013-03-05 03:54:00,
2013-03-05 03:59:00,36.8,35.2,29.70,South,181,0.0,0.0,94,0.00,,---,0.00,VWS V14.00,2013-03-05 03:59:00,
2013-03-05 04:04:00,36.8,35.2,29.70,South,181,0.0,0.0,94,0.00,,---,0.00,VWS V14.00,2013-03-05 04:04:00,
2013-03-05 04:09:00,36.8,35.2,29.70,South,181,0.0,0.0,94,0.00,,---,0.00,VWS V14.00,2013-03-05 04:09:00,
2013-03-05 04:14:00,36.8,35.2,29.70,South,184,2.0,3.0,94,0.00,,---,0.00,VWS V14.00,2013-03-05 04:14:00,
2013-03-05 04:19:00,36.7,35.1,29.70,South,184,0.0,0.0,94,0.00,,---,0.00,VWS V14.00,2013-03-05 04:19:00,
2013-03-05 04:24:00,36.7,35.4,29.70,South,184,0.0,0.0,95,0.00,,---,0.00,VWS V14.00,2013-03-05 04:24:00,
2013-03-05 04:29:00,36.8,35.5,29.70,South,184,0.0,0.0,95,0.00,,---,0.00,VWS V14.00,2013-03-05 04:29:00,
2013-03-05 04:35:00,36.7,35.4,29.70,South,184,0.0,0.0,95,0.00,,---,0.00,VWS V14.00,2013-03-05 04:35:00,
2013-03-05 04:40:00,36.8,35.5,29.70,South,184,0.0,0.0,95,0.00,,---,0.00,VWS V14.00,2013-03-05 04:40:00,
2013-03-05 04:46:00,36.6,35.3,29.70,South,184,0.0,0.0,95,0.00,,---,0.00,VWS V14.00,2013-03-05 04:46:00,
2013-03-05 04:51:00,36.6,35.3,29.70,South,184,0.0,0.0,95,0.00,,---,0.00,VWS V14.00,2013-03-05 04:51:00,
2013-03-05 04:57:00,36.5,35.2,29.70,South,184,0.0,0.0,95,0.00,,---,0.00,VWS V14.00,2013-03-05 04:57:00,
2013-03-05 05:00:00,36.5,35.2,29.70,South,184,0.0,0.0,95,0.00,,---,0.00,VWS V14.00,2013-03-05 05:00:00,
2013-03-05 05:01:00,36.5,35.2,29.70,South,184,0.0,0.0,95,0.00,,---,0.00,VWS V14.00,2013-03-05 05:01:00,
2013-03-05 05:04:00,36.4,35.1,29.70,South,184,0.0,0.0,95,0.00,,---,0.00,VWS V14.00,2013-03-05 05:04:00,
2013-03-05 05:06:00,36.4,35.1,29.70,South,184,0.0,0.0,95,0.00,,---,0.00,VWS V14.00,2013-03-05 05:06:00,
2013-03-05 05:11:00,36.3,35.0,29.70,South,184,0.0,0.0,95,0.00,,---,0.00,VWS V14.00,2013-03-05 05:11:00,
2013-03-05 05:16:00,36.3,35.0,29.70,South,184,0.0,0.0,95,0.00,,---,0.00,VWS V14.00,2013-03-05 05:16:00,
2013-03-05 05:21:00,36.4,35.4,29.70,South,184,0.0,0.0,96,0.00,,---,0.00,VWS V14.00,2013-03-05 05:21:00,
2013-03-05 05:27:00,36.5,35.5,29.69,South,184,0.0,0.0,96,0.00,,---,0.00,VWS V14.00,2013-03-05 05:27:00,
2013-03-05 05:32:00,36.6,35.6,29.70,South,184,0.0,0.0,96,0.00,,---,0.00,VWS V14.00,2013-03-05 05:32:00,
2013-03-05 05:37:00,36.8,35.8,29.69,South,184,0.0,0.0,96,0.00,,---,0.00,VWS V14.00,2013-03-05 05:37:00,
2013-03-05 05:42:00,37.0,36.2,29.69,South,184,0.0,2.0,97,0.00,,---,0.00,VWS V14.00,2013-03-05 05:42:00,
2013-03-05 05:47:00,37.2,36.4,29.69,South,184,0.0,0.0,97,0.00,,---,0.00,VWS V14.00,2013-03-05 05:47:00,
2013-03-05 05:52:00,37.3,36.3,29.69,South,184,1.0,1.0,96,0.00,,---,0.00,VWS V14.00,2013-03-05 05:52:00,
2013-03-05 05:57:00,37.3,36.3,29.69,South,184,0.0,0.0,96,0.00,,---,0.00,VWS V14.00,2013-03-05 05:57:00,
2013-03-05 06:02:00,37.3,36.3,29.69,SSE,168,0.0,1.0,96,0.00,,---,0.00,VWS V14.00,2013-03-05 06:02:00,
2013-03-05 06:07:00,37.3,36.5,29.69,SSE,167,1.0,2.0,97,0.00,,---,0.00,VWS V14.00,2013-03-05 06:07:00,
2013-03-05 06:12:00,37.3,36.5,29.69,ESE,115,2.0,3.0,97,0.00,,---,0.00,VWS V14.00,2013-03-05 06:12:00,
2013-03-05 06:17:00,37.4,36.6,29.69,ESE,114,1.0,2.0,97,0.00,,---,0.00,VWS V14.00,2013-03-05 06:17:00,
2013-03-05 06:22:00,37.4,36.6,29.69,ESE,114,2.0,3.0,97,0.00,,---,0.00,VWS V14.00,2013-03-05 06:22:00,
2013-03-05 06:27:00,37.3,36.3,29.69,ESE,112,2.0,4.0,96,0.00,,---,0.00,VWS V14.00,2013-03-05 06:27:00,
2013-03-05 06:32:00,37.1,36.1,29.69,ESE,110,2.0,3.0,96,0.00,,---,0.00,VWS V14.00,2013-03-05 06:32:00,
2013-03-05 06:38:00,37.1,36.1,29.68,East,99,3.0,4.0,96,0.00,,---,0.00,VWS V14.00,2013-03-05 06:38:00,
2013-03-05 06:43:00,37.1,36.1,29.68,East,95,4.0,4.0,96,0.00,,---,0.00,VWS V14.00,2013-03-05 06:43:00,
2013-03-05 06:48:00,37.2,36.2,29.68,East,95,3.0,3.0,96,0.00,,---,0.00,VWS V14.00,2013-03-05 06:48:00,
2013-03-05 06:53:00,37.3,36.3,29.68,East,94,3.0,4.0,96,0.00,,---,0.00,VWS V14.00,2013-03-05 06:53:00,
2013-03-05 06:58:00,37.4,36.4,29.69,East,80,2.0,4.0,96,0.00,,---,0.00,VWS V14.00,2013-03-05 06:58:00,
2013-03-05 07:03:00,37.6,36.6,29.68,East,84,4.0,4.0,96,0.00,,---,0.00,VWS V14.00,2013-03-05 07:03:00,
2013-03-05 07:09:00,37.7,36.7,29.69,East,84,2.0,4.0,96,0.00,,---,0.00,VWS V14.00,2013-03-05 07:09:00,
2013-03-05 07:14:00,37.9,36.9,29.68,East,84,4.0,4.0,96,0.00,,---,0.00,VWS V14.00,2013-03-05 07:14:00,
2013-03-05 07:19:00,38.0,36.7,29.68,East,84,3.0,4.0,95,0.00,,---,0.00,VWS V14.00,2013-03-05 07:19:00,
2013-03-05 07:24:00,38.0,36.7,29.68,East,84,4.0,4.0,95,0.00,,---,0.00,VWS V14.00,2013-03-05 07:24:00,
2013-03-05 07:29:00,38.2,36.9,29.68,East,84,4.0,4.0,95,0.00,,---,0.00,VWS V14.00,2013-03-05 07:29:00,
2013-03-05 07:34:00,38.4,37.1,29.68,East,84,4.0,5.0,95,0.00,,---,0.00,VWS V14.00,2013-03-05 07:34:00,
2013-03-05 07:39:00,38.5,37.2,29.68,East,97,4.0,5.0,95,0.00,,---,0.00,VWS V14.00,2013-03-05 07:39:00,
2013-03-05 07:44:00,38.7,37.4,29.68,East,97,4.0,5.0,95,0.00,,---,0.00,VWS V14.00,2013-03-05 07:44:00,
2013-03-05 07:49:00,38.9,37.6,29.68,East,98,4.0,5.0,95,0.00,,---,0.00,VWS V14.00,2013-03-05 07:49:00,
2013-03-05 07:54:00,39.1,37.8,29.68,East,101,6.0,7.0,95,0.00,,---,0.00,VWS V14.00,2013-03-05 07:54:00,
2013-03-05 07:59:00,39.4,38.1,29.68,ESE,112,4.0,6.0,95,0.00,,---,0.00,VWS V14.00,2013-03-05 07:59:00,
2013-03-05 08:05:00,39.6,38.0,29.68,ESE,110,5.0,5.0,94,0.00,,---,0.00,VWS V14.00,2013-03-05 08:05:00,
2013-03-05 08:11:00,39.9,38.3,29.69,ESE,111,3.0,4.0,94,0.00,,---,0.00,VWS V14.00,2013-03-05 08:11:00,
2013-03-05 08:17:00,40.1,38.5,29.69,ESE,112,6.0,7.0,94,0.00,,---,0.00,VWS V14.00,2013-03-05 08:17:00,
2013-03-05 08:23:00,40.4,38.8,29.69,ESE,107,5.0,6.0,94,0.00,,---,0.00,VWS V14.00,2013-03-05 08:23:00,
2013-03-05 08:28:00,40.7,39.1,29.69,ESE,114,5.0,6.0,94,0.00,,---,0.00,VWS V14.00,2013-03-05 08:28:00,
2013-03-05 08:34:00,40.9,39.3,29.68,ESE,104,5.0,6.0,94,0.00,,---,0.00,VWS V14.00,2013-03-05 08:34:00,
2013-03-05 08:39:00,41.1,39.5,29.69,ESE,106,6.0,8.0,94,0.00,,---,0.00,VWS V14.00,2013-03-05 08:39:00,
2013-03-05 08:45:00,41.4,39.8,29.68,ESE,103,4.0,6.0,94,0.00,,---,0.00,VWS V14.00,2013-03-05 08:45:00,
2013-03-05 08:50:00,41.6,40.0,29.68,ESE,102,3.0,6.0,94,0.00,,---,0.00,VWS V14.00,2013-03-05 08:50:00,
2013-03-05 08:55:00,41.7,40.1,29.68,ESE,104,6.0,6.0,94,0.00,,---,0.00,VWS V14.00,2013-03-05 08:55:00,
2013-03-05 09:01:00,41.9,40.3,29.68,ESE,106,6.0,7.0,94,0.00,,---,0.00,VWS V14.00,2013-03-05 09:01:00,
2013-03-05 09:06:00,42.1,40.5,29.68,ESE,106,2.0,6.0,94,0.00,,---,0.00,VWS V14.00,2013-03-05 09:06:00,
2013-03-05 09:12:00,42.3,40.4,29.68,ESE,113,8.0,10.0,93,0.00,,---,0.00,VWS V14.00,2013-03-05 09:12:00,
2013-03-05 09:17:00,42.3,40.4,29.68,ESE,112,7.0,7.0,93,0.00,,---,0.00,VWS V14.00,2013-03-05 09:17:00,
2013-03-05 09:22:00,42.4,40.5,29.68,SE,136,4.0,7.0,93,0.00,,---,0.00,VWS V14.00,2013-03-05 09:22:00,
2013-03-05 09:27:00,42.5,40.3,29.68,ESE,107,3.0,10.0,92,0.00,,---,0.00,VWS V14.00,2013-03-05 09:27:00,
2013-03-05 09:32:00,42.5,40.3,29.68,ESE,118,5.0,6.0,92,0.00,,---,0.00,VWS V14.00,2013-03-05 09:32:00,
2013-03-05 09:38:00,42.8,40.6,29.68,ESE,104,8.0,9.0,92,0.00,,---,0.00,VWS V14.00,2013-03-05 09:38:00,
2013-03-05 09:43:00,42.8,40.6,29.67,ESE,108,4.0,8.0,92,0.00,,---,0.00,VWS V14.00,2013-03-05 09:43:00,
2013-03-05 09:48:00,42.9,40.7,29.67,ESE,103,4.0,7.0,92,0.00,,---,0.00,VWS V14.00,2013-03-05 09:48:00,
2013-03-05 09:53:00,43.0,40.6,29.67,SE,128,6.0,7.0,91,0.00,,---,0.00,VWS V14.00,2013-03-05 09:53:00,
2013-03-05 09:58:00,43.2,41.0,29.67,East,98,6.0,7.0,92,0.00,,---,0.00,VWS V14.00,2013-03-05 09:58:00,
2013-03-05 10:03:00,43.2,40.8,29.67,ESE,108,5.0,7.0,91,0.00,,---,0.00,VWS V14.00,2013-03-05 10:03:00,
2013-03-05 10:09:00,43.1,40.7,29.67,ESE,107,5.0,10.0,91,0.00,,---,0.00,VWS V14.00,2013-03-05 10:09:00,
2013-03-05 10:14:00,43.2,40.8,29.67,ESE,111,7.0,7.0,91,0.00,,---,0.00,VWS V14.00,2013-03-05 10:14:00,
2013-03-05 10:20:00,43.8,41.6,29.67,ESE,121,6.0,7.0,92,0.00,,---,0.00,VWS V14.00,2013-03-05 10:20:00,
2013-03-05 10:25:00,44.0,41.5,29.67,East,88,6.0,10.0,91,0.00,,---,0.00,VWS V14.00,2013-03-05 10:25:00,
2013-03-05 10:30:00,43.7,41.0,29.67,ESE,107,11.0,11.0,90,0.00,,---,0.00,VWS V14.00,2013-03-05 10:30:00,
2013-03-05 10:35:00,43.7,41.2,29.67,ESE,123,10.0,11.0,91,0.00,,---,0.00,VWS V14.00,2013-03-05 10:35:00,
2013-03-05 10:40:00,43.8,41.1,29.67,ESE,112,3.0,5.0,90,0.00,,---,0.00,VWS V14.00,2013-03-05 10:40:00,
2013-03-05 10:45:00,44.1,41.4,29.67,East,96,3.0,7.0,90,0.00,,---,0.00,VWS V14.00,2013-03-05 10:45:00,
2013-03-05 10:50:00,44.1,40.8,29.67,SE,126,10.0,10.0,88,0.00,,---,0.00,VWS V14.00,2013-03-05 10:50:00,
2013-03-05 10:56:00,44.0,41.0,29.67,ESE,108,3.0,8.0,89,0.00,,---,0.00,VWS V14.00,2013-03-05 10:56:00,
2013-03-05 11:02:00,44.2,41.5,29.67,ESE,117,4.0,7.0,90,0.00,,---,0.00,VWS V14.00,2013-03-05 11:02:00,
2013-03-05 11:07:00,44.4,41.4,29.67,East,98,2.0,9.0,89,0.00,,---,0.00,VWS V14.00,2013-03-05 11:07:00,
2013-03-05 11:12:00,44.3,41.0,29.66,SE,126,6.0,9.0,88,0.00,,---,0.00,VWS V14.00,2013-03-05 11:12:00,
2013-03-05 11:17:00,44.1,41.1,29.66,East,88,8.0,10.0,89,0.00,,---,0.00,VWS V14.00,2013-03-05 11:17:00,
2013-03-05 11:22:00,43.9,40.9,29.66,ESE,113,9.0,10.0,89,0.00,,---,0.00,VWS V14.00,2013-03-05 11:22:00,
2013-03-05 11:27:00,44.0,41.0,29.66,ESE,103,9.0,9.0,89,0.00,,---,0.00,VWS V14.00,2013-03-05 11:27:00,
2013-03-05 11:32:00,43.9,40.9,29.66,SE,124,6.0,9.0,89,0.00,,---,0.00,VWS V14.00,2013-03-05 11:32:00,
2013-03-05 11:37:00,44.1,41.1,29.66,ESE,115,7.0,7.0,89,0.00,,---,0.00,VWS V14.00,2013-03-05 11:37:00,
2013-03-05 11:42:00,44.4,41.4,29.66,East,99,9.0,9.0,89,0.00,,---,0.00,VWS V14.00,2013-03-05 11:42:00,
2013-03-05 11:47:00,44.5,41.5,29.66,East,99,5.0,7.0,89,0.00,,---,0.00,VWS V14.00,2013-03-05 11:47:00,
2013-03-05 11:53:00,44.5,41.5,29.66,SE,125,8.0,9.0,89,0.00,,---,0.00,VWS V14.00,2013-03-05 11:53:00,
2013-03-05 11:59:00,44.5,41.5,29.66,ESE,106,1.0,6.0,89,0.00,,---,0.00,VWS V14.00,2013-03-05 11:59:00,
2013-03-05 12:05:00,44.7,41.7,29.66,East,86,5.0,7.0,89,0.00,,---,0.00,VWS V14.00,2013-03-05 12:05:00,
2013-03-05 12:10:00,44.4,41.1,29.66,East,101,5.0,8.0,88,0.00,,---,0.00,VWS V14.00,2013-03-05 12:10:00,
2013-03-05 12:15:00,44.2,40.9,29.66,ESE,103,6.0,6.0,88,0.00,,---,0.00,VWS V14.00,2013-03-05 12:15:00,
2013-03-05 12:20:00,44.1,41.1,29.66,East,98,6.0,9.0,89,0.00,,---,0.00,VWS V14.00,2013-03-05 12:20:00,
2013-03-05 12:25:00,44.0,40.7,29.66,ESE,108,6.0,9.0,88,0.00,,---,0.00,VWS V14.00,2013-03-05 12:25:00,
2013-03-05 12:30:00,43.9,40.6,29.66,ESE,105,5.0,7.0,88,0.00,,---,0.00,VWS V14.00,2013-03-05 12:30:00,
2013-03-05 12:35:00,43.9,40.9,29.65,East,96,5.0,5.0,89,0.00,,---,0.00,VWS V14.00,2013-03-05 12:35:00,
2013-03-05 12:41:00,44.0,41.3,29.65,East,82,5.0,5.0,90,0.00,,---,0.00,VWS V14.00,2013-03-05 12:41:00,
2013-03-05 12:46:00,43.6,40.9,29.65,East,82,5.0,5.0,90,0.00,,---,0.00,VWS V14.00,2013-03-05 12:46:00,
2013-03-05 12:51:00,43.5,40.8,29.65,East,98,5.0,6.0,90,0.00,,---,0.00,VWS V14.00,2013-03-05 12:51:00,
2013-03-05 12:56:00,43.6,40.9,29.65,East,91,4.0,5.0,90,0.00,,---,0.00,VWS V14.00,2013-03-05 12:56:00,
2013-03-05 13:01:00,43.8,41.1,29.65,East,101,6.0,6.0,90,0.00,,---,0.00,VWS V14.00,2013-03-05 13:01:00,
2013-03-05 13:06:00,43.7,40.7,29.65,East,82,6.0,9.0,89,0.00,,---,0.00,VWS V14.00,2013-03-05 13:06:00,
2013-03-05 13:11:00,43.7,41.0,29.64,East,82,6.0,7.0,90,0.00,,---,0.00,VWS V14.00,2013-03-05 13:11:00,
2013-03-05 13:16:00,43.8,40.8,29.64,East,101,4.0,7.0,89,0.00,,---,0.00,VWS V14.00,2013-03-05 13:16:00,
2013-03-05 13:21:00,43.8,40.8,29.64,ESE,115,4.0,6.0,89,0.00,,---,0.00,VWS V14.00,2013-03-05 13:21:00,
2013-03-05 13:26:00,43.8,40.8,29.65,East,91,9.0,10.0,89,0.00,,---,0.00,VWS V14.00,2013-03-05 13:26:00,
2013-03-05 13:31:00,43.8,40.8,29.65,East,92,7.0,10.0,89,0.00,,---,0.00,VWS V14.00,2013-03-05 13:31:00,
2013-03-05 13:36:00,43.7,40.7,29.64,East,79,4.0,7.0,89,0.00,,---,0.00,VWS V14.00,2013-03-05 13:36:00,
2013-03-05 13:41:00,43.8,41.1,29.64,ENE,70,7.0,9.0,90,0.00,,---,0.00,VWS V14.00,2013-03-05 13:41:00,
2013-03-05 13:46:00,44.1,41.4,29.64,East,96,7.0,9.0,90,0.00,,---,0.00,VWS V14.00,2013-03-05 13:46:00,
2013-03-05 13:51:00,44.2,41.5,29.64,ENE,74,8.0,12.0,90,0.00,,---,0.00,VWS V14.00,2013-03-05 13:51:00,
2013-03-05 13:56:00,44.1,41.7,29.64,NE,56,13.0,13.0,91,0.00,,---,0.00,VWS V14.00,2013-03-05 13:56:00,
2013-03-05 14:01:00,44.0,41.5,29.64,ENE,69,10.0,13.0,91,0.00,,---,0.00,VWS V14.00,2013-03-05 14:01:00,
2013-03-05 14:06:00,44.0,41.8,29.64,ENE,63,10.0,11.0,92,0.00,,---,0.00,VWS V14.00,2013-03-05 14:06:00,
2013-03-05 14:11:00,44.1,41.9,29.63,East,86,6.0,9.0,92,0.00,,---,0.00,VWS V14.00,2013-03-05 14:11:00,
2013-03-05 14:16:00,44.3,42.1,29.63,ENE,67,8.0,10.0,92,0.00,,---,0.00,VWS V14.00,2013-03-05 14:16:00,
2013-03-05 14:21:00,44.0,41.8,29.63,East,98,10.0,13.0,92,0.00,,---,0.00,VWS V14.00,2013-03-05 14:21:00,
2013-03-05 14:26:00,43.6,41.7,29.63,East,84,9.0,14.0,93,0.00,,---,0.00,VWS V14.00,2013-03-05 14:26:00,
2013-03-05 14:31:00,43.6,41.7,29.63,East,95,9.0,11.0,93,0.00,,---,0.00,VWS V14.00,2013-03-05 14:31:00,
2013-03-05 14:36:00,43.4,41.5,29.63,East,90,9.0,10.0,93,0.00,,---,0.00,VWS V14.00,2013-03-05 14:36:00,
2013-03-05 14:41:00,43.2,41.3,29.63,ENE,67,7.0,7.0,93,0.00,,---,0.00,VWS V14.00,2013-03-05 14:41:00,
2013-03-05 14:47:00,42.9,41.0,29.63,ENE,74,10.0,12.0,93,0.00,,---,0.00,VWS V14.00,2013-03-05 14:47:00,
2013-03-05 14:52:00,42.8,41.2,29.63,ESE,107,10.0,12.0,94,0.00,,---,0.00,VWS V14.00,2013-03-05 14:52:00,
2013-03-05 14:57:00,42.7,41.1,29.63,East,85,10.0,10.0,94,0.00,,---,0.00,VWS V14.00,2013-03-05 14:57:00,
2013-03-05 15:02:00,42.6,41.3,29.63,East,79,6.0,10.0,95,0.00,,---,0.00,VWS V14.00,2013-03-05 15:02:00,
2013-03-05 15:07:00,42.5,40.9,29.63,East,85,4.0,10.0,94,0.00,,---,0.00,VWS V14.00,2013-03-05 15:07:00,
2013-03-05 15:12:00,42.5,40.9,29.63,East,88,5.0,9.0,94,0.00,,---,0.00,VWS V14.00,2013-03-05 15:12:00,
2013-03-05 15:17:00,42.5,40.9,29.63,East,92,6.0,7.0,94,0.00,,---,0.00,VWS V14.00,2013-03-05 15:17:00,
2013-03-05 15:23:00,42.5,40.9,29.63,East,96,5.0,7.0,94,0.00,,---,0.00,VWS V14.00,2013-03-05 15:23:00,
2013-03-05 15:28:00,42.8,41.2,29.62,ESE,107,10.0,10.0,94,0.00,,---,0.00,VWS V14.00,2013-03-05 15:28:00,
2013-03-05 15:34:00,42.9,41.3,29.62,ENE,74,9.0,11.0,94,0.00,,---,0.00,VWS V14.00,2013-03-05 15:34:00,
2013-03-05 15:40:00,42.8,40.9,29.62,NE,44,8.0,8.0,93,0.00,,---,0.00,VWS V14.00,2013-03-05 15:40:00,
2013-03-05 15:45:00,42.7,40.8,29.61,East,82,9.0,10.0,93,0.00,,---,0.00,VWS V14.00,2013-03-05 15:45:00,
2013-03-05 15:50:00,42.5,40.9,29.61,ENE,66,6.0,10.0,94,0.00,,---,0.00,VWS V14.00,2013-03-05 15:50:00,
2013-03-05 15:56:00,42.5,40.9,29.62,East,92,10.0,11.0,94,0.00,,---,0.00,VWS V14.00,2013-03-05 15:56:00,
2013-03-05 16:01:00,42.4,40.8,29.61,ENE,74,7.0,8.0,94,0.00,,---,0.00,VWS V14.00,2013-03-05 16:01:00,
2013-03-05 16:06:00,42.4,40.8,29.62,ENE,66,6.0,6.0,94,0.00,,---,0.00,VWS V14.00,2013-03-05 16:06:00,
2013-03-05 16:12:00,42.2,40.6,29.61,NE,55,6.0,10.0,94,0.00,,---,0.00,VWS V14.00,2013-03-05 16:12:00,
2013-03-05 16:17:00,42.2,40.6,29.61,ENE,69,5.0,5.0,94,0.00,,---,0.00,VWS V14.00,2013-03-05 16:17:00,
2013-03-05 16:22:00,42.1,40.8,29.61,ENE,63,4.0,9.0,95,0.00,,---,0.00,VWS V14.00,2013-03-05 16:22:00,
2013-03-05 16:27:00,42.0,40.7,29.61,ENE,74,9.0,10.0,95,0.00,,---,0.00,VWS V14.00,2013-03-05 16:27:00,
2013-03-05 16:32:00,41.9,40.6,29.61,East,95,6.0,7.0,95,0.00,,---,0.00,VWS V14.00,2013-03-05 16:32:00,
2013-03-05 16:37:00,41.9,40.6,29.61,ENE,67,7.0,9.0,95,0.00,,---,0.00,VWS V14.00,2013-03-05 16:37:00,
2013-03-05 16:42:00,41.9,40.6,29.61,East,90,9.0,9.0,95,0.00,,---,0.00,VWS V14.00,2013-03-05 16:42:00,
2013-03-05 16:47:00,41.8,40.5,29.61,NE,56,9.0,11.0,95,0.00,,---,0.00,VWS V14.00,2013-03-05 16:47:00,
2013-03-05 16:53:00,41.7,40.4,29.60,East,80,4.0,9.0,95,0.00,,---,0.00,VWS V14.00,2013-03-05 16:53:00,
2013-03-05 16:58:00,41.6,40.3,29.60,NE,51,6.0,6.0,95,0.00,,---,0.00,VWS V14.00,2013-03-05 16:58:00,
2013-03-05 17:03:00,41.6,40.3,29.60,NE,42,6.0,6.0,95,0.00,,---,0.00,VWS V14.00,2013-03-05 17:03:00,
2013-03-05 17:08:00,41.6,40.3,29.60,ENE,72,7.0,7.0,95,0.00,,---,0.00,VWS V14.00,2013-03-05 17:08:00,
2013-03-05 17:13:00,41.5,40.2,29.60,ENE,61,6.0,12.0,95,0.00,,---,0.00,VWS V14.00,2013-03-05 17:13:00,
2013-03-05 17:18:00,41.5,40.2,29.61,NE,52,3.0,4.0,95,0.00,,---,0.00,VWS V14.00,2013-03-05 17:18:00,
2013-03-05 17:23:00,41.4,40.1,29.61,ENE,58,4.0,6.0,95,0.00,,---,0.00,VWS V14.00,2013-03-05 17:23:00,
2013-03-05 17:28:00,41.4,40.1,29.61,NE,46,6.0,7.0,95,0.00,,---,0.00,VWS V14.00,2013-03-05 17:28:00,
2013-03-05 17:33:00,41.4,40.1,29.60,NE,40,6.0,10.0,95,0.00,,---,0.00,VWS V14.00,2013-03-05 17:33:00,
2013-03-05 17:38:00,41.3,40.0,29.60,ENE,67,7.0,7.0,95,0.00,,---,0.00,VWS V14.00,2013-03-05 17:38:00,
2013-03-05 17:43:00,41.3,40.0,29.60,ENE,60,6.0,10.0,95,0.00,,---,0.00,VWS V14.00,2013-03-05 17:43:00,
2013-03-05 17:49:00,41.3,40.2,29.60,ENE,63,8.0,10.0,96,0.00,,---,0.00,VWS V14.00,2013-03-05 17:49:00,
2013-03-05 17:54:00,41.4,40.3,29.60,ENE,76,11.0,12.0,96,0.00,,---,0.00,VWS V14.00,2013-03-05 17:54:00,
2013-03-05 17:59:00,41.4,40.3,29.60,ENE,66,12.0,12.0,96,0.00,,---,0.00,VWS V14.00,2013-03-05 17:59:00,
2013-03-05 18:04:00,41.4,40.3,29.60,ENE,65,6.0,6.0,96,0.00,,---,0.00,VWS V14.00,2013-03-05 18:04:00,
2013-03-05 18:10:00,41.5,40.5,29.60,ENE,57,5.0,7.0,96,0.00,,---,0.00,VWS V14.00,2013-03-05 18:10:00,
2013-03-05 18:15:00,41.5,40.5,29.60,East,87,10.0,12.0,96,0.00,,---,0.00,VWS V14.00,2013-03-05 18:15:00,
2013-03-05 18:20:00,41.5,40.5,29.60,East,82,6.0,9.0,96,0.00,,---,0.00,VWS V14.00,2013-03-05 18:20:00,
2013-03-05 18:25:00,41.5,40.5,29.60,East,84,6.0,9.0,96,0.00,,---,0.00,VWS V14.00,2013-03-05 18:25:00,
2013-03-05 18:30:00,41.5,40.5,29.60,ENE,69,7.0,7.0,96,0.00,,---,0.00,VWS V14.00,2013-03-05 18:30:00,
2013-03-05 18:35:00,41.6,40.5,29.60,East,81,6.0,8.0,96,0.00,,---,0.00,VWS V14.00,2013-03-05 18:35:00,
2013-03-05 18:40:00,41.6,40.5,29.60,East,81,8.0,8.0,96,0.00,,---,0.00,VWS V14.00,2013-03-05 18:40:00,
2013-03-05 18:45:00,41.6,40.5,29.60,East,79,6.0,11.0,96,0.00,,---,0.00,VWS V14.00,2013-03-05 18:45:00,
2013-03-05 18:50:00,41.6,40.5,29.60,East,84,6.0,7.0,96,0.00,,---,0.00,VWS V14.00,2013-03-05 18:50:00,
2013-03-05 18:55:00,41.6,40.8,29.59,ENE,78,7.0,9.0,97,0.00,,---,0.00,VWS V14.00,2013-03-05 18:55:00,
2013-03-05 19:00:00,41.7,40.9,29.59,ENE,66,7.0,10.0,97,0.00,,---,0.00,VWS V14.00,2013-03-05 19:00:00,
2013-03-05 19:05:00,41.7,40.9,29.60,East,90,6.0,8.0,97,0.00,,---,0.00,VWS V14.00,2013-03-05 19:05:00,
2013-03-05 19:10:00,41.7,40.9,29.60,East,87,11.0,11.0,97,0.00,,---,0.00,VWS V14.00,2013-03-05 19:10:00,
2013-03-05 19:16:00,41.7,40.9,29.60,East,83,7.0,10.0,97,0.00,,---,0.00,VWS V14.00,2013-03-05 19:16:00,
2013-03-05 19:21:00,41.7,40.9,29.60,East,81,4.0,7.0,97,0.00,,---,0.00,VWS V14.00,2013-03-05 19:21:00,
2013-03-05 19:26:00,41.7,40.9,29.60,East,79,11.0,11.0,97,0.00,,---,0.00,VWS V14.00,2013-03-05 19:26:00,
2013-03-05 19:31:00,41.8,41.0,29.60,ESE,103,10.0,10.0,97,0.00,,---,0.00,VWS V14.00,2013-03-05 19:31:00,
2013-03-05 19:36:00,41.8,41.0,29.61,East,98,4.0,7.0,97,0.00,,---,0.00,VWS V14.00,2013-03-05 19:36:00,
2013-03-05 19:42:00,41.8,41.0,29.60,ESE,102,5.0,10.0,97,0.00,,---,0.00,VWS V14.00,2013-03-05 19:42:00,
2013-03-05 19:47:00,41.8,41.0,29.61,ESE,104,9.0,9.0,97,0.00,,---,0.00,VWS V14.00,2013-03-05 19:47:00,
2013-03-05 19:52:00,41.8,41.0,29.60,East,88,6.0,10.0,97,0.00,,---,0.00,VWS V14.00,2013-03-05 19:52:00,
2013-03-05 19:57:00,41.8,41.0,29.60,East,82,4.0,12.0,97,0.00,,---,0.00,VWS V14.00,2013-03-05 19:57:00,
2013-03-05 20:02:00,41.8,41.0,29.60,East,88,5.0,7.0,97,0.00,,---,0.00,VWS V14.00,2013-03-05 20:02:00,
2013-03-05 20:07:00,41.8,41.0,29.60,East,98,8.0,9.0,97,0.00,,---,0.00,VWS V14.00,2013-03-05 20:07:00,
2013-03-05 20:12:00,41.8,41.0,29.60,East,94,8.0,10.0,97,0.00,,---,0.00,VWS V14.00,2013-03-05 20:12:00,
2013-03-05 20:17:00,41.8,41.0,29.60,ESE,103,5.0,7.0,97,0.00,,---,0.00,VWS V14.00,2013-03-05 20:17:00,
2013-03-05 20:22:00,41.8,41.0,29.60,East,94,4.0,6.0,97,0.00,,---,0.00,VWS V14.00,2013-03-05 20:22:00,
2013-03-05 20:28:00,41.8,41.0,29.60,ENE,78,6.0,6.0,97,0.00,,---,0.00,VWS V14.00,2013-03-05 20:28:00,
2013-03-05 20:33:00,41.8,41.0,29.59,East,84,6.0,6.0,97,0.00,,---,0.00,VWS V14.00,2013-03-05 20:33:00,
2013-03-05 20:38:00,41.8,41.0,29.59,East,87,5.0,10.0,97,0.00,,---,0.00,VWS V14.00,2013-03-05 20:38:00,
2013-03-05 20:43:00,41.9,41.1,29.60,ESE,119,5.0,11.0,97,0.00,,---,0.00,VWS V14.00,2013-03-05 20:43:00,
2013-03-05 20:49:00,41.9,41.1,29.60,East,100,8.0,9.0,97,0.00,,---,0.00,VWS V14.00,2013-03-05 20:49:00,
2013-03-05 20:54:00,42.0,41.2,29.60,East,82,4.0,9.0,97,0.00,,---,0.00,VWS V14.00,2013-03-05 20:54:00,
2013-03-05 20:59:00,42.0,41.2,29.60,East,86,9.0,9.0,97,0.00,,---,0.00,VWS V14.00,2013-03-05 20:59:00,
2013-03-05 21:04:00,42.0,41.2,29.59,East,80,10.0,11.0,97,0.00,,---,0.00,VWS V14.00,2013-03-05 21:04:00,
2013-03-05 21:09:00,42.0,41.2,29.60,East,97,6.0,10.0,97,0.00,,---,0.00,VWS V14.00,2013-03-05 21:09:00,
2013-03-05 21:14:00,42.0,41.2,29.59,East,89,10.0,11.0,97,0.00,,---,0.00,VWS V14.00,2013-03-05 21:14:00,
2013-03-05 21:19:00,42.0,41.2,29.59,East,80,7.0,11.0,97,0.00,,---,0.00,VWS V14.00,2013-03-05 21:19:00,
2013-03-05 21:24:00,42.0,41.2,29.59,East,80,10.0,11.0,97,0.00,,---,0.00,VWS V14.00,2013-03-05 21:24:00,
2013-03-05 21:29:00,42.0,41.2,29.59,ENE,77,8.0,10.0,97,0.00,,---,0.00,VWS V14.00,2013-03-05 21:29:00,
2013-03-05 21:34:00,42.0,41.2,29.59,East,84,5.0,6.0,97,0.00,,---,0.00,VWS V14.00,2013-03-05 21:34:00,
2013-03-05 21:39:00,42.0,41.2,29.59,East,86,8.0,10.0,97,0.00,,---,0.00,VWS V14.00,2013-03-05 21:39:00,
2013-03-05 21:44:00,42.0,41.2,29.59,ENE,73,4.0,8.0,97,0.00,,---,0.00,VWS V14.00,2013-03-05 21:44:00,
2013-03-05 21:50:00,42.0,41.2,29.59,ENE,74,6.0,10.0,97,0.00,,---,0.00,VWS V14.00,2013-03-05 21:50:00,
2013-03-05 21:55:00,42.1,41.3,29.59,East,87,10.0,11.0,97,0.00,,---,0.00,VWS V14.00,2013-03-05 21:55:00,
2013-03-05 22:00:00,42.1,41.3,29.59,East,80,4.0,7.0,97,0.00,,---,0.00,VWS V14.00,2013-03-05 22:00:00,
2013-03-05 22:05:00,42.1,41.3,29.59,ENE,70,4.0,7.0,97,0.00,,---,0.00,VWS V14.00,2013-03-05 22:05:00,
2013-03-05 22:10:00,42.1,41.3,29.59,ENE,63,6.0,9.0,97,0.00,,---,0.00,VWS V14.00,2013-03-05 22:10:00,
2013-03-05 22:15:00,42.1,41.3,29.59,ENE,64,3.0,4.0,97,0.00,,---,0.00,VWS V14.00,2013-03-05 22:15:00,
2013-03-05 22:20:00,42.2,41.4,29.59,East,84,5.0,7.0,97,0.00,,---,0.00,VWS V14.00,2013-03-05 22:20:00,
2013-03-05 22:25:00,42.1,41.3,29.59,East,80,3.0,6.0,97,0.00,,---,0.00,VWS V14.00,2013-03-05 22:25:00,
2013-03-05 22:30:00,42.1,41.3,29.59,East,80,4.0,5.0,97,0.00,,---,0.00,VWS V14.00,2013-03-05 22:30:00,
2013-03-05 22:35:00,42.2,41.4,29.59,East,84,5.0,6.0,97,0.00,,---,0.00,VWS V14.00,2013-03-05 22:35:00,
2013-03-05 22:40:00,42.2,41.1,29.59,East,86,2.0,7.0,96,0.00,,---,0.00,VWS V14.00,2013-03-05 22:40:00,
2013-03-05 22:45:00,42.2,41.1,29.59,East,90,6.0,6.0,96,0.00,,---,0.00,VWS V14.00,2013-03-05 22:45:00,
2013-03-05 22:50:00,42.2,41.4,29.59,East,80,4.0,7.0,97,0.00,,---,0.00,VWS V14.00,2013-03-05 22:50:00,
2013-03-05 22:55:00,42.3,41.5,29.59,ENE,78,4.0,5.0,97,0.00,,---,0.00,VWS V14.00,2013-03-05 22:55:00,
2013-03-05 23:00:00,42.3,41.2,29.59,East,80,4.0,4.0,96,0.00,,---,0.00,VWS V14.00,2013-03-05 23:00:00,
2013-03-05 23:05:00,42.4,41.3,29.59,ENE,76,4.0,5.0,96,0.00,,---,0.00,VWS V14.00,2013-03-05 23:05:00,
2013-03-05 23:10:00,42.4,41.3,29.59,East,81,5.0,5.0,96,0.00,,---,0.00,VWS V14.00,2013-03-05 23:10:00,
2013-03-05 23:15:00,42.4,41.3,29.58,ENE,74,4.0,5.0,96,0.00,,---,0.00,VWS V14.00,2013-03-05 23:15:00,
2013-03-05 23:21:00,42.5,41.4,29.58,ENE,64,5.0,6.0,96,0.00,,---,0.00,VWS V14.00,2013-03-05 23:21:00,
2013-03-05 23:26:00,42.5,41.4,29.58,ENE,74,4.0,5.0,96,0.00,,---,0.00,VWS V14.00,2013-03-05 23:26:00,
2013-03-05 23:31:00,42.5,41.4,29.58,ENE,73,5.0,5.0,96,0.00,,---,0.00,VWS V14.00,2013-03-05 23:31:00,
2013-03-05 23:36:00,42.5,41.4,29.58,ENE,70,3.0,4.0,96,0.00,,---,0.00,VWS V14.00,2013-03-05 23:36:00,
2013-03-05 23:41:00,42.5,41.4,29.58,ENE,69,4.0,6.0,96,0.00,,---,0.00,VWS V14.00,2013-03-05 23:41:00,
2013-03-05 23:46:00,42.5,41.4,29.58,ENE,77,2.0,5.0,96,0.00,,---,0.00,VWS V14.00,2013-03-05 23:46:00,
2013-03-05 23:51:00,42.5,41.2,29.58,ENE,75,2.0,3.0,95,0.00,,---,0.00,VWS V14.00,2013-03-05 23:51:00,
2013-03-05 23:56:00,42.5,41.2,29.58,East,80,9.0,10.0,95,0.00,,---,0.00,VWS V14.00,2013-03-05 23:56:00,